sensor_id;sensor_type;location;lat;lon;timestamp;P1;durP1;ratioP1;P2;durP2;ratioP2
38725;SDS011;24474;48.906;8.808;2023-04-09T00:00:10;24.38;;;16.75;;
38725;SDS011;24474;48.906;8.808;2023-04-09T00:02:37;21.85;;;15.20;;
38725;SDS011;24474;48.906;8.808;2023-04-09T00:05:06;34.45;;;21.10;;
38725;SDS011;24474;48.906;8.808;2023-04-09T00:07:33;33.95;;;20.80;;
38725;SDS011;24474;48.906;8.808;2023-04-09T00:10:00;28.83;;;19.02;;
38725;SDS011;24474;48.906;8.808;2023-04-09T00:12:26;19.17;;;14.07;;
38725;SDS011;24474;48.906;8.808;2023-04-09T00:14:52;23.70;;;16.45;;
38725;SDS011;24474;48.906;8.808;2023-04-09T00:17:19;27.85;;;18.35;;
38725;SDS011;24474;48.906;8.808;2023-04-09T00:19:47;23.13;;;16.25;;
38725;SDS011;24474;48.906;8.808;2023-04-09T00:22:13;21.60;;;15.85;;
38725;SDS011;24474;48.906;8.808;2023-04-09T00:24:43;11.88;;;10.43;;
38725;SDS011;24474;48.906;8.808;2023-04-09T00:27:12;11.48;;;10.27;;
38725;SDS011;24474;48.906;8.808;2023-04-09T00:29:38;12.20;;;10.75;;
38725;SDS011;24474;48.906;8.808;2023-04-09T00:32:06;11.50;;;9.98;;
38725;SDS011;24474;48.906;8.808;2023-04-09T00:34:34;12.75;;;10.30;;
38725;SDS011;24474;48.906;8.808;2023-04-09T00:36:59;11.30;;;9.80;;
38725;SDS011;24474;48.906;8.808;2023-04-09T00:39:26;10.70;;;9.55;;
38725;SDS011;24474;48.906;8.808;2023-04-09T00:41:58;10.07;;;9.07;;
38725;SDS011;24474;48.906;8.808;2023-04-09T00:44:29;11.07;;;9.43;;
38725;SDS011;24474;48.906;8.808;2023-04-09T00:46:56;10.38;;;8.68;;
38725;SDS011;24474;48.906;8.808;2023-04-09T00:49:23;11.07;;;9.25;;
38725;SDS011;24474;48.906;8.808;2023-04-09T00:51:51;9.45;;;8.38;;
38725;SDS011;24474;48.906;8.808;2023-04-09T00:54:19;9.93;;;8.65;;
38725;SDS011;24474;48.906;8.808;2023-04-09T00:56:46;10.57;;;8.07;;
38725;SDS011;24474;48.906;8.808;2023-04-09T00:59:15;9.40;;;7.88;;
38725;SDS011;24474;48.906;8.808;2023-04-09T01:01:43;10.70;;;9.02;;
38725;SDS011;24474;48.906;8.808;2023-04-09T01:04:09;9.80;;;8.80;;
38725;SDS011;24474;48.906;8.808;2023-04-09T01:06:48;12.70;;;8.98;;
38725;SDS011;24474;48.906;8.808;2023-04-09T01:09:23;9.45;;;8.45;;
38725;SDS011;24474;48.906;8.808;2023-04-09T01:15:04;11.60;;;9.10;;
38725;SDS011;24474;48.906;8.808;2023-04-09T01:20:55;10.85;;;9.73;;
38725;SDS011;24474;48.906;8.808;2023-04-09T01:29:22;11.88;;;9.40;;
38725;SDS011;24474;48.906;8.808;2023-04-09T01:31:50;10.75;;;8.90;;
38725;SDS011;24474;48.906;8.808;2023-04-09T01:34:18;10.13;;;8.65;;
38725;SDS011;24474;48.906;8.808;2023-04-09T01:36:47;10.75;;;8.73;;
38725;SDS011;24474;48.906;8.808;2023-04-09T01:39:18;11.27;;;8.30;;
38725;SDS011;24474;48.906;8.808;2023-04-09T01:41:48;10.68;;;8.48;;
38725;SDS011;24474;48.906;8.808;2023-04-09T01:44:14;10.82;;;8.40;;
38725;SDS011;24474;48.906;8.808;2023-04-09T01:46:43;9.45;;;7.63;;
38725;SDS011;24474;48.906;8.808;2023-04-09T01:51:38;9.77;;;7.38;;
38725;SDS011;24474;48.906;8.808;2023-04-09T01:54:05;10.45;;;8.73;;
38725;SDS011;24474;48.906;8.808;2023-04-09T01:56:43;9.75;;;8.57;;
38725;SDS011;24474;48.906;8.808;2023-04-09T01:59:10;11.88;;;9.68;;
38725;SDS011;24474;48.906;8.808;2023-04-09T02:01:45;11.32;;;9.77;;
38725;SDS011;24474;48.906;8.808;2023-04-09T02:04:25;11.50;;;9.63;;
38725;SDS011;24474;48.906;8.808;2023-04-09T02:10:12;11.88;;;10.35;;
38725;SDS011;24474;48.906;8.808;2023-04-09T02:12:44;12.13;;;9.60;;
38725;SDS011;24474;48.906;8.808;2023-04-09T02:15:14;11.23;;;9.80;;
38725;SDS011;24474;48.906;8.808;2023-04-09T02:17:42;12.30;;;10.02;;
38725;SDS011;24474;48.906;8.808;2023-04-09T02:20:09;12.02;;;9.93;;
38725;SDS011;24474;48.906;8.808;2023-04-09T02:22:37;12.63;;;9.77;;
38725;SDS011;24474;48.906;8.808;2023-04-09T02:25:05;11.55;;;9.20;;
38725;SDS011;24474;48.906;8.808;2023-04-09T02:27:31;10.60;;;8.75;;
38725;SDS011;24474;48.906;8.808;2023-04-09T02:29:57;11.98;;;9.70;;
38725;SDS011;24474;48.906;8.808;2023-04-09T02:32:23;10.52;;;9.40;;
38725;SDS011;24474;48.906;8.808;2023-04-09T02:34:50;11.10;;;9.30;;
38725;SDS011;24474;48.906;8.808;2023-04-09T02:37:16;10.90;;;9.13;;
38725;SDS011;24474;48.906;8.808;2023-04-09T02:39:42;10.93;;;9.25;;
38725;SDS011;24474;48.906;8.808;2023-04-09T02:42:10;10.75;;;9.07;;
38725;SDS011;24474;48.906;8.808;2023-04-09T02:44:36;11.65;;;9.45;;
38725;SDS011;24474;48.906;8.808;2023-04-09T02:47:02;10.98;;;9.30;;
38725;SDS011;24474;48.906;8.808;2023-04-09T02:49:29;12.02;;;10.20;;
38725;SDS011;24474;48.906;8.808;2023-04-09T02:51:55;12.65;;;9.68;;
38725;SDS011;24474;48.906;8.808;2023-04-09T02:54:21;12.15;;;10.40;;
38725;SDS011;24474;48.906;8.808;2023-04-09T02:56:47;11.27;;;10.02;;
38725;SDS011;24474;48.906;8.808;2023-04-09T02:59:12;12.40;;;10.27;;
38725;SDS011;24474;48.906;8.808;2023-04-09T03:01:38;12.05;;;10.13;;
38725;SDS011;24474;48.906;8.808;2023-04-09T03:04:05;10.95;;;9.57;;
38725;SDS011;24474;48.906;8.808;2023-04-09T03:06:32;13.15;;;10.60;;
38725;SDS011;24474;48.906;8.808;2023-04-09T03:08:59;12.95;;;9.85;;
38725;SDS011;24474;48.906;8.808;2023-04-09T03:11:26;13.32;;;11.18;;
38725;SDS011;24474;48.906;8.808;2023-04-09T03:13:52;11.60;;;10.38;;
38725;SDS011;24474;48.906;8.808;2023-04-09T03:16:18;12.38;;;10.45;;
38725;SDS011;24474;48.906;8.808;2023-04-09T03:18:45;13.18;;;10.52;;
38725;SDS011;24474;48.906;8.808;2023-04-09T03:21:12;14.43;;;11.50;;
38725;SDS011;24474;48.906;8.808;2023-04-09T03:23:38;13.65;;;11.57;;
38725;SDS011;24474;48.906;8.808;2023-04-09T03:26:05;13.73;;;11.80;;
38725;SDS011;24474;48.906;8.808;2023-04-09T03:28:32;14.23;;;12.00;;
38725;SDS011;24474;48.906;8.808;2023-04-09T03:30:57;12.93;;;10.80;;
38725;SDS011;24474;48.906;8.808;2023-04-09T03:33:26;13.40;;;11.27;;
38725;SDS011;24474;48.906;8.808;2023-04-09T03:35:52;13.02;;;10.88;;
38725;SDS011;24474;48.906;8.808;2023-04-09T03:38:18;14.07;;;10.52;;
38725;SDS011;24474;48.906;8.808;2023-04-09T03:40:44;13.27;;;10.82;;
38725;SDS011;24474;48.906;8.808;2023-04-09T03:43:09;12.32;;;10.65;;
38725;SDS011;24474;48.906;8.808;2023-04-09T03:45:35;15.50;;;11.05;;
38725;SDS011;24474;48.906;8.808;2023-04-09T03:48:02;12.23;;;10.10;;
38725;SDS011;24474;48.906;8.808;2023-04-09T03:50:28;15.30;;;12.43;;
38725;SDS011;24474;48.906;8.808;2023-04-09T03:52:55;12.77;;;10.60;;
38725;SDS011;24474;48.906;8.808;2023-04-09T03:55:23;13.73;;;11.52;;
38725;SDS011;24474;48.906;8.808;2023-04-09T03:57:49;13.70;;;11.63;;
38725;SDS011;24474;48.906;8.808;2023-04-09T04:00:14;15.77;;;12.25;;
38725;SDS011;24474;48.906;8.808;2023-04-09T04:02:40;14.52;;;11.55;;
38725;SDS011;24474;48.906;8.808;2023-04-09T04:05:08;15.20;;;12.80;;
38725;SDS011;24474;48.906;8.808;2023-04-09T04:07:33;16.60;;;13.40;;
38725;SDS011;24474;48.906;8.808;2023-04-09T04:10:02;15.32;;;13.18;;
38725;SDS011;24474;48.906;8.808;2023-04-09T04:12:30;14.48;;;12.07;;
38725;SDS011;24474;48.906;8.808;2023-04-09T04:14:59;16.73;;;13.50;;
38725;SDS011;24474;48.906;8.808;2023-04-09T04:17:26;15.10;;;12.77;;
38725;SDS011;24474;48.906;8.808;2023-04-09T04:19:52;14.20;;;12.50;;
38725;SDS011;24474;48.906;8.808;2023-04-09T04:22:19;13.45;;;11.77;;
38725;SDS011;24474;48.906;8.808;2023-04-09T04:24:44;15.82;;;13.07;;
38725;SDS011;24474;48.906;8.808;2023-04-09T04:27:11;16.92;;;13.45;;
38725;SDS011;24474;48.906;8.808;2023-04-09T04:29:38;20.02;;;16.63;;
38725;SDS011;24474;48.906;8.808;2023-04-09T04:32:04;16.95;;;14.75;;
38725;SDS011;24474;48.906;8.808;2023-04-09T04:34:30;15.85;;;13.05;;
38725;SDS011;24474;48.906;8.808;2023-04-09T04:36:56;17.45;;;13.70;;
38725;SDS011;24474;48.906;8.808;2023-04-09T04:39:23;16.77;;;14.13;;
38725;SDS011;24474;48.906;8.808;2023-04-09T04:41:48;27.48;;;22.15;;
38725;SDS011;24474;48.906;8.808;2023-04-09T04:44:15;21.65;;;17.67;;
38725;SDS011;24474;48.906;8.808;2023-04-09T04:46:41;19.88;;;15.70;;
38725;SDS011;24474;48.906;8.808;2023-04-09T04:49:07;19.23;;;15.65;;
38725;SDS011;24474;48.906;8.808;2023-04-09T04:51:32;17.77;;;13.80;;
38725;SDS011;24474;48.906;8.808;2023-04-09T04:53:58;15.75;;;14.05;;
38725;SDS011;24474;48.906;8.808;2023-04-09T04:56:25;15.85;;;12.88;;
38725;SDS011;24474;48.906;8.808;2023-04-09T04:58:50;17.02;;;13.02;;
38725;SDS011;24474;48.906;8.808;2023-04-09T05:01:17;15.85;;;13.48;;
38725;SDS011;24474;48.906;8.808;2023-04-09T05:03:43;15.65;;;13.73;;
38725;SDS011;24474;48.906;8.808;2023-04-09T05:06:09;17.17;;;13.77;;
38725;SDS011;24474;48.906;8.808;2023-04-09T05:08:36;16.98;;;13.73;;
38725;SDS011;24474;48.906;8.808;2023-04-09T05:11:01;16.05;;;13.55;;
38725;SDS011;24474;48.906;8.808;2023-04-09T05:13:27;15.35;;;13.13;;
38725;SDS011;24474;48.906;8.808;2023-04-09T05:15:55;16.30;;;13.52;;
38725;SDS011;24474;48.906;8.808;2023-04-09T05:18:21;16.58;;;13.98;;
38725;SDS011;24474;48.906;8.808;2023-04-09T05:20:48;15.85;;;13.45;;
38725;SDS011;24474;48.906;8.808;2023-04-09T05:23:13;16.00;;;13.70;;
38725;SDS011;24474;48.906;8.808;2023-04-09T05:25:41;19.50;;;15.32;;
38725;SDS011;24474;48.906;8.808;2023-04-09T05:28:06;17.90;;;14.73;;
38725;SDS011;24474;48.906;8.808;2023-04-09T05:30:35;17.88;;;15.63;;
38725;SDS011;24474;48.906;8.808;2023-04-09T05:33:02;21.98;;;16.88;;
38725;SDS011;24474;48.906;8.808;2023-04-09T05:35:27;21.65;;;17.13;;
38725;SDS011;24474;48.906;8.808;2023-04-09T05:37:55;17.98;;;14.48;;
38725;SDS011;24474;48.906;8.808;2023-04-09T05:40:20;18.00;;;14.27;;
38725;SDS011;24474;48.906;8.808;2023-04-09T05:42:49;20.75;;;15.38;;
38725;SDS011;24474;48.906;8.808;2023-04-09T05:45:15;16.70;;;13.77;;
38725;SDS011;24474;48.906;8.808;2023-04-09T05:47:42;18.73;;;15.15;;
38725;SDS011;24474;48.906;8.808;2023-04-09T05:50:12;21.40;;;15.68;;
38725;SDS011;24474;48.906;8.808;2023-04-09T05:52:39;20.50;;;16.15;;
38725;SDS011;24474;48.906;8.808;2023-04-09T05:55:06;21.77;;;16.65;;
38725;SDS011;24474;48.906;8.808;2023-04-09T05:57:33;21.27;;;16.13;;
38725;SDS011;24474;48.906;8.808;2023-04-09T05:59:59;19.52;;;15.85;;
38725;SDS011;24474;48.906;8.808;2023-04-09T06:02:27;18.55;;;15.52;;
38725;SDS011;24474;48.906;8.808;2023-04-09T06:04:54;19.70;;;14.95;;
38725;SDS011;24474;48.906;8.808;2023-04-09T06:07:20;18.98;;;14.45;;
38725;SDS011;24474;48.906;8.808;2023-04-09T06:09:46;21.25;;;16.20;;
38725;SDS011;24474;48.906;8.808;2023-04-09T06:12:12;19.75;;;16.33;;
38725;SDS011;24474;48.906;8.808;2023-04-09T06:14:40;20.95;;;16.55;;
38725;SDS011;24474;48.906;8.808;2023-04-09T06:17:05;21.80;;;16.10;;
38725;SDS011;24474;48.906;8.808;2023-04-09T06:19:33;20.00;;;16.10;;
38725;SDS011;24474;48.906;8.808;2023-04-09T06:21:59;19.52;;;16.83;;
38725;SDS011;24474;48.906;8.808;2023-04-09T06:24:25;19.83;;;16.48;;
38725;SDS011;24474;48.906;8.808;2023-04-09T06:26:52;20.90;;;16.45;;
38725;SDS011;24474;48.906;8.808;2023-04-09T06:29:19;19.48;;;15.93;;
38725;SDS011;24474;48.906;8.808;2023-04-09T06:31:45;21.27;;;16.98;;
38725;SDS011;24474;48.906;8.808;2023-04-09T06:34:12;21.02;;;16.65;;
38725;SDS011;24474;48.906;8.808;2023-04-09T06:36:38;20.38;;;17.38;;
38725;SDS011;24474;48.906;8.808;2023-04-09T06:39:07;18.95;;;15.95;;
38725;SDS011;24474;48.906;8.808;2023-04-09T06:41:33;19.73;;;16.90;;
38725;SDS011;24474;48.906;8.808;2023-04-09T06:43:59;18.70;;;15.65;;
38725;SDS011;24474;48.906;8.808;2023-04-09T06:46:24;20.80;;;16.10;;
38725;SDS011;24474;48.906;8.808;2023-04-09T06:48:52;20.25;;;16.65;;
38725;SDS011;24474;48.906;8.808;2023-04-09T06:51:20;18.85;;;15.93;;
38725;SDS011;24474;48.906;8.808;2023-04-09T06:53:47;22.45;;;15.27;;
38725;SDS011;24474;48.906;8.808;2023-04-09T06:56:14;23.65;;;18.38;;
38725;SDS011;24474;48.906;8.808;2023-04-09T06:58:40;18.35;;;15.55;;
38725;SDS011;24474;48.906;8.808;2023-04-09T07:01:07;20.73;;;16.52;;
38725;SDS011;24474;48.906;8.808;2023-04-09T07:03:34;19.67;;;15.70;;
38725;SDS011;24474;48.906;8.808;2023-04-09T07:06:00;17.05;;;15.13;;
38725;SDS011;24474;48.906;8.808;2023-04-09T07:08:27;19.42;;;15.52;;
38725;SDS011;24474;48.906;8.808;2023-04-09T07:10:54;18.38;;;15.07;;
38725;SDS011;24474;48.906;8.808;2023-04-09T07:13:21;20.15;;;15.75;;
38725;SDS011;24474;48.906;8.808;2023-04-09T07:15:47;18.17;;;14.98;;
38725;SDS011;24474;48.906;8.808;2023-04-09T07:18:12;17.80;;;14.40;;
38725;SDS011;24474;48.906;8.808;2023-04-09T07:20:39;17.67;;;14.20;;
38725;SDS011;24474;48.906;8.808;2023-04-09T07:23:06;18.15;;;14.23;;
38725;SDS011;24474;48.906;8.808;2023-04-09T07:25:33;17.15;;;14.00;;
38725;SDS011;24474;48.906;8.808;2023-04-09T07:28:01;19.65;;;15.18;;
38725;SDS011;24474;48.906;8.808;2023-04-09T07:30:28;17.52;;;14.70;;
38725;SDS011;24474;48.906;8.808;2023-04-09T07:32:55;17.00;;;14.50;;
38725;SDS011;24474;48.906;8.808;2023-04-09T07:35:22;18.25;;;14.25;;
38725;SDS011;24474;48.906;8.808;2023-04-09T07:37:49;16.95;;;14.07;;
38725;SDS011;24474;48.906;8.808;2023-04-09T07:40:14;17.70;;;14.35;;
38725;SDS011;24474;48.906;8.808;2023-04-09T07:42:41;18.85;;;14.73;;
38725;SDS011;24474;48.906;8.808;2023-04-09T07:45:08;16.67;;;14.00;;
38725;SDS011;24474;48.906;8.808;2023-04-09T07:47:33;16.80;;;14.30;;
38725;SDS011;24474;48.906;8.808;2023-04-09T07:50:00;17.05;;;13.75;;
38725;SDS011;24474;48.906;8.808;2023-04-09T07:52:27;18.58;;;14.43;;
38725;SDS011;24474;48.906;8.808;2023-04-09T07:54:54;16.90;;;14.63;;
38725;SDS011;24474;48.906;8.808;2023-04-09T07:57:22;15.57;;;13.70;;
38725;SDS011;24474;48.906;8.808;2023-04-09T07:59:48;17.25;;;14.48;;
38725;SDS011;24474;48.906;8.808;2023-04-09T08:02:13;16.83;;;14.23;;
38725;SDS011;24474;48.906;8.808;2023-04-09T08:04:39;17.92;;;15.30;;
38725;SDS011;24474;48.906;8.808;2023-04-09T08:07:08;15.13;;;12.93;;
38725;SDS011;24474;48.906;8.808;2023-04-09T08:09:35;15.82;;;13.73;;
38725;SDS011;24474;48.906;8.808;2023-04-09T08:12:04;16.13;;;13.82;;
38725;SDS011;24474;48.906;8.808;2023-04-09T08:14:35;15.38;;;12.68;;
38725;SDS011;24474;48.906;8.808;2023-04-09T08:17:03;14.95;;;12.65;;
38725;SDS011;24474;48.906;8.808;2023-04-09T08:19:32;16.90;;;13.48;;
38725;SDS011;24474;48.906;8.808;2023-04-09T08:22:04;13.23;;;11.63;;
38725;SDS011;24474;48.906;8.808;2023-04-09T08:24:29;15.00;;;12.55;;
38725;SDS011;24474;48.906;8.808;2023-04-09T08:26:55;12.45;;;10.27;;
38725;SDS011;24474;48.906;8.808;2023-04-09T08:29:22;13.30;;;11.38;;
38725;SDS011;24474;48.906;8.808;2023-04-09T08:31:49;12.48;;;10.88;;
38725;SDS011;24474;48.906;8.808;2023-04-09T08:34:16;13.60;;;11.00;;
38725;SDS011;24474;48.906;8.808;2023-04-09T08:36:45;14.77;;;11.40;;
38725;SDS011;24474;48.906;8.808;2023-04-09T08:39:14;13.73;;;11.05;;
38725;SDS011;24474;48.906;8.808;2023-04-09T08:41:44;12.07;;;10.43;;
38725;SDS011;24474;48.906;8.808;2023-04-09T08:44:11;13.07;;;10.90;;
38725;SDS011;24474;48.906;8.808;2023-04-09T08:46:37;12.32;;;10.35;;
38725;SDS011;24474;48.906;8.808;2023-04-09T08:49:02;11.90;;;9.93;;
38725;SDS011;24474;48.906;8.808;2023-04-09T08:51:29;12.10;;;10.27;;
38725;SDS011;24474;48.906;8.808;2023-04-09T08:54:00;12.45;;;10.38;;
38725;SDS011;24474;48.906;8.808;2023-04-09T08:56:27;11.85;;;10.07;;
38725;SDS011;24474;48.906;8.808;2023-04-09T08:58:54;12.07;;;10.10;;
38725;SDS011;24474;48.906;8.808;2023-04-09T09:01:29;11.55;;;10.00;;
38725;SDS011;24474;48.906;8.808;2023-04-09T09:03:57;11.45;;;9.95;;
38725;SDS011;24474;48.906;8.808;2023-04-09T09:06:34;12.27;;;10.00;;
38725;SDS011;24474;48.906;8.808;2023-04-09T09:09:08;10.50;;;8.82;;
38725;SDS011;24474;48.906;8.808;2023-04-09T09:11:37;9.18;;;7.80;;
38725;SDS011;24474;48.906;8.808;2023-04-09T09:14:07;9.45;;;7.78;;
38725;SDS011;24474;48.906;8.808;2023-04-09T09:16:37;9.90;;;7.75;;
38725;SDS011;24474;48.906;8.808;2023-04-09T09:19:27;10.68;;;8.18;;
38725;SDS011;24474;48.906;8.808;2023-04-09T09:22:02;10.73;;;8.25;;
38725;SDS011;24474;48.906;8.808;2023-04-09T09:24:31;9.57;;;7.65;;
38725;SDS011;24474;48.906;8.808;2023-04-09T09:26:59;10.70;;;7.88;;
38725;SDS011;24474;48.906;8.808;2023-04-09T09:29:26;12.05;;;7.60;;
38725;SDS011;24474;48.906;8.808;2023-04-09T09:31:54;8.38;;;6.95;;
38725;SDS011;24474;48.906;8.808;2023-04-09T09:34:22;7.55;;;6.43;;
38725;SDS011;24474;48.906;8.808;2023-04-09T09:36:53;8.57;;;6.63;;
38725;SDS011;24474;48.906;8.808;2023-04-09T09:39:20;8.63;;;6.40;;
38725;SDS011;24474;48.906;8.808;2023-04-09T09:41:47;8.30;;;6.65;;
38725;SDS011;24474;48.906;8.808;2023-04-09T09:44:32;8.30;;;6.90;;
38725;SDS011;24474;48.906;8.808;2023-04-09T09:46:58;7.85;;;6.47;;
38725;SDS011;24474;48.906;8.808;2023-04-09T09:49:27;8.77;;;7.22;;
38725;SDS011;24474;48.906;8.808;2023-04-09T09:51:55;7.22;;;6.35;;
38725;SDS011;24474;48.906;8.808;2023-04-09T09:54:25;8.10;;;6.03;;
38725;SDS011;24474;48.906;8.808;2023-04-09T09:56:59;6.60;;;4.82;;
38725;SDS011;24474;48.906;8.808;2023-04-09T09:59:31;7.13;;;5.07;;
38725;SDS011;24474;48.906;8.808;2023-04-09T10:02:04;7.13;;;5.60;;
38725;SDS011;24474;48.906;8.808;2023-04-09T10:04:34;6.00;;;4.85;;
38725;SDS011;24474;48.906;8.808;2023-04-09T10:07:02;7.03;;;5.93;;
38725;SDS011;24474;48.906;8.808;2023-04-09T10:09:34;6.32;;;5.03;;
38725;SDS011;24474;48.906;8.808;2023-04-09T10:12:03;6.53;;;5.20;;
38725;SDS011;24474;48.906;8.808;2023-04-09T10:14:31;7.10;;;5.68;;
38725;SDS011;24474;48.906;8.808;2023-04-09T10:16:59;6.15;;;4.45;;
38725;SDS011;24474;48.906;8.808;2023-04-09T10:19:29;7.70;;;6.47;;
38725;SDS011;24474;48.906;8.808;2023-04-09T10:22:05;7.00;;;5.82;;
38725;SDS011;24474;48.906;8.808;2023-04-09T10:24:37;6.07;;;5.15;;
38725;SDS011;24474;48.906;8.808;2023-04-09T10:27:14;5.07;;;3.78;;
38725;SDS011;24474;48.906;8.808;2023-04-09T10:29:43;4.40;;;3.53;;
38725;SDS011;24474;48.906;8.808;2023-04-09T10:32:10;4.80;;;3.88;;
38725;SDS011;24474;48.906;8.808;2023-04-09T10:34:52;4.75;;;3.85;;
38725;SDS011;24474;48.906;8.808;2023-04-09T10:39:52;5.03;;;3.80;;
38725;SDS011;24474;48.906;8.808;2023-04-09T10:42:37;5.15;;;4.05;;
38725;SDS011;24474;48.906;8.808;2023-04-09T10:45:11;5.15;;;4.28;;
38725;SDS011;24474;48.906;8.808;2023-04-09T10:47:41;5.35;;;4.30;;
38725;SDS011;24474;48.906;8.808;2023-04-09T10:50:21;5.75;;;4.40;;
38725;SDS011;24474;48.906;8.808;2023-04-09T10:52:54;5.38;;;4.40;;
38725;SDS011;24474;48.906;8.808;2023-04-09T10:55:41;4.82;;;3.78;;
38725;SDS011;24474;48.906;8.808;2023-04-09T10:58:21;4.70;;;3.50;;
38725;SDS011;24474;48.906;8.808;2023-04-09T11:00:49;5.22;;;3.88;;
38725;SDS011;24474;48.906;8.808;2023-04-09T11:05:47;6.00;;;4.05;;
38725;SDS011;24474;48.906;8.808;2023-04-09T11:08:34;4.82;;;3.85;;
38725;SDS011;24474;48.906;8.808;2023-04-09T11:11:02;4.53;;;3.55;;
38725;SDS011;24474;48.906;8.808;2023-04-09T11:13:30;5.00;;;3.63;;
38725;SDS011;24474;48.906;8.808;2023-04-09T11:15:59;4.75;;;3.63;;
38725;SDS011;24474;48.906;8.808;2023-04-09T11:18:33;6.78;;;3.63;;
38725;SDS011;24474;48.906;8.808;2023-04-09T11:21:01;4.88;;;3.72;;
38725;SDS011;24474;48.906;8.808;2023-04-09T11:23:30;5.90;;;3.80;;
38725;SDS011;24474;48.906;8.808;2023-04-09T11:25:56;3.78;;;3.08;;
38725;SDS011;24474;48.906;8.808;2023-04-09T11:28:23;4.18;;;3.60;;
38725;SDS011;24474;48.906;8.808;2023-04-09T11:30:51;6.32;;;4.72;;
38725;SDS011;24474;48.906;8.808;2023-04-09T11:33:18;6.28;;;4.80;;
38725;SDS011;24474;48.906;8.808;2023-04-09T11:35:45;7.30;;;4.82;;
38725;SDS011;24474;48.906;8.808;2023-04-09T11:38:15;5.35;;;4.30;;
38725;SDS011;24474;48.906;8.808;2023-04-09T11:40:41;5.45;;;3.67;;
38725;SDS011;24474;48.906;8.808;2023-04-09T11:43:15;5.50;;;4.38;;
38725;SDS011;24474;48.906;8.808;2023-04-09T11:45:46;4.97;;;4.20;;
38725;SDS011;24474;48.906;8.808;2023-04-09T11:48:13;5.88;;;4.05;;
38725;SDS011;24474;48.906;8.808;2023-04-09T11:50:47;5.38;;;3.40;;
38725;SDS011;24474;48.906;8.808;2023-04-09T11:53:20;5.55;;;3.67;;
38725;SDS011;24474;48.906;8.808;2023-04-09T11:55:51;4.05;;;3.30;;
38725;SDS011;24474;48.906;8.808;2023-04-09T11:58:22;4.53;;;3.53;;
38725;SDS011;24474;48.906;8.808;2023-04-09T12:00:53;3.00;;;2.47;;
38725;SDS011;24474;48.906;8.808;2023-04-09T12:03:28;3.90;;;3.50;;
38725;SDS011;24474;48.906;8.808;2023-04-09T12:05:59;3.58;;;2.70;;
38725;SDS011;24474;48.906;8.808;2023-04-09T12:08:26;5.33;;;3.17;;
38725;SDS011;24474;48.906;8.808;2023-04-09T12:10:52;3.60;;;2.85;;
38725;SDS011;24474;48.906;8.808;2023-04-09T12:13:20;3.20;;;2.60;;
38725;SDS011;24474;48.906;8.808;2023-04-09T12:15:57;4.28;;;3.00;;
38725;SDS011;24474;48.906;8.808;2023-04-09T12:18:30;4.38;;;3.10;;
38725;SDS011;24474;48.906;8.808;2023-04-09T12:21:02;3.88;;;2.72;;
38725;SDS011;24474;48.906;8.808;2023-04-09T12:23:29;4.18;;;2.75;;
38725;SDS011;24474;48.906;8.808;2023-04-09T12:26:00;5.35;;;3.30;;
38725;SDS011;24474;48.906;8.808;2023-04-09T12:28:27;3.30;;;2.88;;
38725;SDS011;24474;48.906;8.808;2023-04-09T12:30:54;4.35;;;3.47;;
38725;SDS011;24474;48.906;8.808;2023-04-09T12:33:21;4.22;;;3.00;;
38725;SDS011;24474;48.906;8.808;2023-04-09T12:35:47;4.30;;;3.20;;
38725;SDS011;24474;48.906;8.808;2023-04-09T12:38:14;3.58;;;2.85;;
38725;SDS011;24474;48.906;8.808;2023-04-09T12:40:40;5.00;;;3.70;;
38725;SDS011;24474;48.906;8.808;2023-04-09T12:43:08;4.25;;;3.55;;
38725;SDS011;24474;48.906;8.808;2023-04-09T12:45:35;4.57;;;3.53;;
38725;SDS011;24474;48.906;8.808;2023-04-09T12:48:02;4.75;;;3.80;;
38725;SDS011;24474;48.906;8.808;2023-04-09T12:50:28;4.70;;;3.80;;
38725;SDS011;24474;48.906;8.808;2023-04-09T12:52:55;4.82;;;3.83;;
38725;SDS011;24474;48.906;8.808;2023-04-09T12:55:22;4.43;;;3.70;;
38725;SDS011;24474;48.906;8.808;2023-04-09T12:57:49;5.18;;;4.13;;
38725;SDS011;24474;48.906;8.808;2023-04-09T13:00:16;4.63;;;3.35;;
38725;SDS011;24474;48.906;8.808;2023-04-09T13:02:44;4.75;;;4.18;;
38725;SDS011;24474;48.906;8.808;2023-04-09T13:05:11;4.50;;;3.53;;
38725;SDS011;24474;48.906;8.808;2023-04-09T13:07:41;3.95;;;3.25;;
38725;SDS011;24474;48.906;8.808;2023-04-09T13:10:08;4.82;;;3.67;;
38725;SDS011;24474;48.906;8.808;2023-04-09T13:12:37;4.15;;;3.22;;
38725;SDS011;24474;48.906;8.808;2023-04-09T13:15:04;6.72;;;3.90;;
38725;SDS011;24474;48.906;8.808;2023-04-09T13:17:41;5.18;;;3.88;;
38725;SDS011;24474;48.906;8.808;2023-04-09T13:20:08;4.03;;;3.20;;
38725;SDS011;24474;48.906;8.808;2023-04-09T13:22:36;5.07;;;4.10;;
38725;SDS011;24474;48.906;8.808;2023-04-09T13:25:03;4.47;;;3.80;;
38725;SDS011;24474;48.906;8.808;2023-04-09T13:27:30;5.15;;;4.00;;
38725;SDS011;24474;48.906;8.808;2023-04-09T13:29:57;4.60;;;3.60;;
38725;SDS011;24474;48.906;8.808;2023-04-09T13:32:24;4.72;;;3.80;;
38725;SDS011;24474;48.906;8.808;2023-04-09T13:34:54;5.22;;;4.05;;
38725;SDS011;24474;48.906;8.808;2023-04-09T13:37:22;6.43;;;3.65;;
38725;SDS011;24474;48.906;8.808;2023-04-09T13:39:51;5.57;;;3.63;;
38725;SDS011;24474;48.906;8.808;2023-04-09T13:42:19;5.75;;;3.58;;
38725;SDS011;24474;48.906;8.808;2023-04-09T13:44:45;4.72;;;3.88;;
38725;SDS011;24474;48.906;8.808;2023-04-09T13:47:17;4.03;;;3.40;;
38725;SDS011;24474;48.906;8.808;2023-04-09T13:49:48;4.90;;;4.00;;
38725;SDS011;24474;48.906;8.808;2023-04-09T13:52:16;5.43;;;4.05;;
38725;SDS011;24474;48.906;8.808;2023-04-09T13:54:44;4.63;;;3.40;;
38725;SDS011;24474;48.906;8.808;2023-04-09T13:57:10;4.50;;;3.40;;
38725;SDS011;24474;48.906;8.808;2023-04-09T13:59:36;7.68;;;4.20;;
38725;SDS011;24474;48.906;8.808;2023-04-09T14:02:07;4.57;;;3.40;;
38725;SDS011;24474;48.906;8.808;2023-04-09T14:04:35;5.00;;;3.60;;
38725;SDS011;24474;48.906;8.808;2023-04-09T14:07:07;4.97;;;3.50;;
38725;SDS011;24474;48.906;8.808;2023-04-09T14:09:35;4.47;;;3.60;;
38725;SDS011;24474;48.906;8.808;2023-04-09T14:12:03;5.10;;;3.67;;
38725;SDS011;24474;48.906;8.808;2023-04-09T14:14:32;4.18;;;3.10;;
38725;SDS011;24474;48.906;8.808;2023-04-09T14:16:58;4.90;;;3.50;;
38725;SDS011;24474;48.906;8.808;2023-04-09T14:19:25;3.47;;;2.95;;
38725;SDS011;24474;48.906;8.808;2023-04-09T14:21:53;4.13;;;3.17;;
38725;SDS011;24474;48.906;8.808;2023-04-09T14:24:25;4.30;;;3.13;;
38725;SDS011;24474;48.906;8.808;2023-04-09T14:26:52;5.18;;;3.88;;
38725;SDS011;24474;48.906;8.808;2023-04-09T14:29:18;4.88;;;3.78;;
38725;SDS011;24474;48.906;8.808;2023-04-09T14:31:46;5.38;;;4.05;;
38725;SDS011;24474;48.906;8.808;2023-04-09T14:34:13;5.15;;;3.88;;
38725;SDS011;24474;48.906;8.808;2023-04-09T14:36:39;5.07;;;3.88;;
38725;SDS011;24474;48.906;8.808;2023-04-09T14:39:07;4.53;;;3.25;;
38725;SDS011;24474;48.906;8.808;2023-04-09T14:41:34;4.65;;;3.42;;
38725;SDS011;24474;48.906;8.808;2023-04-09T14:44:01;4.82;;;3.67;;
38725;SDS011;24474;48.906;8.808;2023-04-09T14:46:26;4.43;;;3.20;;
38725;SDS011;24474;48.906;8.808;2023-04-09T14:48:53;5.00;;;3.25;;
38725;SDS011;24474;48.906;8.808;2023-04-09T14:51:23;4.65;;;3.55;;
38725;SDS011;24474;48.906;8.808;2023-04-09T14:53:49;4.60;;;3.42;;
38725;SDS011;24474;48.906;8.808;2023-04-09T14:56:15;4.25;;;3.28;;
38725;SDS011;24474;48.906;8.808;2023-04-09T14:58:42;4.97;;;3.70;;
38725;SDS011;24474;48.906;8.808;2023-04-09T15:01:09;4.93;;;4.03;;